sensor_id;sensor_type;location;lat;lon;timestamp;temperature;humidity
49148;DHT22;41980;45.550;12.070;2023-04-03T00:00:29;12.00;67.70
49148;DHT22;41980;45.550;12.070;2023-04-03T00:06:32;11.90;67.50
49148;DHT22;41980;45.550;12.070;2023-04-03T00:12:34;11.90;67.20
49148;DHT22;41980;45.550;12.070;2023-04-03T00:18:36;11.80;68.00
49148;DHT22;41980;45.550;12.070;2023-04-03T00:24:38;11.70;67.70
49148;DHT22;41980;45.550;12.070;2023-04-03T00:30:40;11.60;68.10
49148;DHT22;41980;45.550;12.070;2023-04-03T00:36:42;11.60;67.50
49148;DHT22;41980;45.550;12.070;2023-04-03T00:42:46;11.70;67.50
49148;DHT22;41980;45.550;12.070;2023-04-03T00:48:50;11.80;71.60
49148;DHT22;41980;45.550;12.070;2023-04-03T00:54:54;11.90;68.60
49148;DHT22;41980;45.550;12.070;2023-04-03T01:00:58;11.80;69.10
49148;DHT22;41980;45.550;12.070;2023-04-03T01:07:05;11.80;68.80
49148;DHT22;41980;45.550;12.070;2023-04-03T01:19:17;11.80;69.20
49148;DHT22;41980;45.550;12.070;2023-04-03T01:25:19;11.90;68.80
49148;DHT22;41980;45.550;12.070;2023-04-03T01:31:23;11.90;69.60
49148;DHT22;41980;45.550;12.070;2023-04-03T01:37:27;11.90;70.00
49148;DHT22;41980;45.550;12.070;2023-04-03T01:43:29;11.80;68.70
49148;DHT22;41980;45.550;12.070;2023-04-03T01:49:30;11.80;70.00
49148;DHT22;41980;45.550;12.070;2023-04-03T01:55:33;11.80;68.90
49148;DHT22;41980;45.550;12.070;2023-04-03T02:01:35;11.80;69.00
49148;DHT22;41980;45.550;12.070;2023-04-03T02:07:37;11.70;70.00
49148;DHT22;41980;45.550;12.070;2023-04-03T02:13:39;11.70;69.40
49148;DHT22;41980;45.550;12.070;2023-04-03T02:19:41;11.60;69.50
49148;DHT22;41980;45.550;12.070;2023-04-03T02:25:43;11.70;69.10
49148;DHT22;41980;45.550;12.070;2023-04-03T02:31:45;11.60;69.30
49148;DHT22;41980;45.550;12.070;2023-04-03T02:37:47;11.50;69.60
49148;DHT22;41980;45.550;12.070;2023-04-03T02:43:49;11.50;69.30
49148;DHT22;41980;45.550;12.070;2023-04-03T02:49:52;11.40;69.40
49148;DHT22;41980;45.550;12.070;2023-04-03T02:55:54;11.30;70.10
49148;DHT22;41980;45.550;12.070;2023-04-03T03:01:56;11.20;70.10
49148;DHT22;41980;45.550;12.070;2023-04-03T03:07:58;11.10;69.50
49148;DHT22;41980;45.550;12.070;2023-04-03T03:14:00;11.00;69.50
49148;DHT22;41980;45.550;12.070;2023-04-03T03:20:02;11.00;69.60
49148;DHT22;41980;45.550;12.070;2023-04-03T03:26:07;11.00;70.80
49148;DHT22;41980;45.550;12.070;2023-04-03T03:32:09;11.00;69.30
49148;DHT22;41980;45.550;12.070;2023-04-03T03:38:11;10.90;69.90
49148;DHT22;41980;45.550;12.070;2023-04-03T03:44:13;11.00;70.10
49148;DHT22;41980;45.550;12.070;2023-04-03T03:50:15;10.90;69.90
49148;DHT22;41980;45.550;12.070;2023-04-03T03:56:17;10.90;70.50
49148;DHT22;41980;45.550;12.070;2023-04-03T04:02:21;10.80;70.50
49148;DHT22;41980;45.550;12.070;2023-04-03T04:08:23;10.80;70.60
49148;DHT22;41980;45.550;12.070;2023-04-03T04:14:26;10.80;70.40
49148;DHT22;41980;45.550;12.070;2023-04-03T04:20:29;10.80;70.60
49148;DHT22;41980;45.550;12.070;2023-04-03T04:26:32;10.80;70.70
49148;DHT22;41980;45.550;12.070;2023-04-03T04:32:34;10.80;70.50
49148;DHT22;41980;45.550;12.070;2023-04-03T04:38:38;10.80;70.50
49148;DHT22;41980;45.550;12.070;2023-04-03T04:44:40;10.80;70.40
49148;DHT22;41980;45.550;12.070;2023-04-03T04:50:44;10.80;70.30
49148;DHT22;41980;45.550;12.070;2023-04-03T04:56:46;10.80;70.50
49148;DHT22;41980;45.550;12.070;2023-04-03T05:02:48;10.80;70.70
49148;DHT22;41980;45.550;12.070;2023-04-03T05:08:51;10.80;71.00
49148;DHT22;41980;45.550;12.070;2023-04-03T05:14:54;10.80;70.30
49148;DHT22;41980;45.550;12.070;2023-04-03T05:20:57;10.80;70.30
49148;DHT22;41980;45.550;12.070;2023-04-03T05:27:02;10.90;70.20
49148;DHT22;41980;45.550;12.070;2023-04-03T05:33:06;11.20;69.80
49148;DHT22;41980;45.550;12.070;2023-04-03T05:39:16;11.90;69.00
49148;DHT22;41980;45.550;12.070;2023-04-03T05:45:22;13.40;66.90
49148;DHT22;41980;45.550;12.070;2023-04-03T05:51:28;14.60;64.40
49148;DHT22;41980;45.550;12.070;2023-04-03T05:57:34;15.40;63.40
49148;DHT22;41980;45.550;12.070;2023-04-03T06:03:36;15.40;62.30
49148;DHT22;41980;45.550;12.070;2023-04-03T06:09:38;16.50;62.70
49148;DHT22;41980;45.550;12.070;2023-04-03T06:15:40;17.60;61.40
49148;DHT22;41980;45.550;12.070;2023-04-03T06:21:45;19.50;59.30
49148;DHT22;41980;45.550;12.070;2023-04-03T06:27:49;21.00;55.80
49148;DHT22;41980;45.550;12.070;2023-04-03T06:33:51;21.60;53.50
49148;DHT22;41980;45.550;12.070;2023-04-03T06:39:53;22.40;51.80
49148;DHT22;41980;45.550;12.070;2023-04-03T06:45:56;22.80;51.40
49148;DHT22;41980;45.550;12.070;2023-04-03T06:51:58;22.60;49.00
49148;DHT22;41980;45.550;12.070;2023-04-03T06:58:00;23.00;48.30
49148;DHT22;41980;45.550;12.070;2023-04-03T07:04:02;23.30;48.80
49148;DHT22;41980;45.550;12.070;2023-04-03T07:10:05;23.50;46.00
49148;DHT22;41980;45.550;12.070;2023-04-03T07:16:09;22.80;45.30
49148;DHT22;41980;45.550;12.070;2023-04-03T07:22:12;22.40;43.90
49148;DHT22;41980;45.550;12.070;2023-04-03T07:28:15;22.80;45.30
49148;DHT22;41980;45.550;12.070;2023-04-03T07:34:18;23.40;42.00
49148;DHT22;41980;45.550;12.070;2023-04-03T07:40:20;24.10;41.80
49148;DHT22;41980;45.550;12.070;2023-04-03T07:46:23;23.50;42.10
49148;DHT22;41980;45.550;12.070;2023-04-03T07:52:25;23.20;41.50
49148;DHT22;41980;45.550;12.070;2023-04-03T07:58:27;22.70;42.20
49148;DHT22;41980;45.550;12.070;2023-04-03T08:04:29;22.50;39.00
49148;DHT22;41980;45.550;12.070;2023-04-03T08:10:32;22.40;41.30
49148;DHT22;41980;45.550;12.070;2023-04-03T08:16:35;20.40;42.40
49148;DHT22;41980;45.550;12.070;2023-04-03T08:22:37;20.60;43.00
49148;DHT22;41980;45.550;12.070;2023-04-03T08:28:41;21.90;39.30
49148;DHT22;41980;45.550;12.070;2023-04-03T08:34:43;21.70;40.70
49148;DHT22;41980;45.550;12.070;2023-04-03T08:40:45;20.20;41.70
49148;DHT22;41980;45.550;12.070;2023-04-03T08:46:58;20.70;40.10
49148;DHT22;41980;45.550;12.070;2023-04-03T08:53:02;19.00;41.20
49148;DHT22;41980;45.550;12.070;2023-04-03T08:59:13;18.10;43.00
49148;DHT22;41980;45.550;12.070;2023-04-03T09:05:29;17.50;42.80
49148;DHT22;41980;45.550;12.070;2023-04-03T09:11:46;19.10;40.80
49148;DHT22;41980;45.550;12.070;2023-04-03T09:24:01;21.00;39.80
49148;DHT22;41980;45.550;12.070;2023-04-03T09:30:08;21.40;39.70
49148;DHT22;41980;45.550;12.070;2023-04-03T09:36:14;21.00;39.30
49148;DHT22;41980;45.550;12.070;2023-04-03T09:42:40;19.50;40.10
49148;DHT22;41980;45.550;12.070;2023-04-03T09:48:51;18.70;41.30
49148;DHT22;41980;45.550;12.070;2023-04-03T09:54:53;18.10;40.60
49148;DHT22;41980;45.550;12.070;2023-04-03T10:01:01;17.60;41.50
49148;DHT22;41980;45.550;12.070;2023-04-03T10:07:26;17.50;40.90
49148;DHT22;41980;45.550;12.070;2023-04-03T10:13:29;18.60;39.70
49148;DHT22;41980;45.550;12.070;2023-04-03T10:25:48;19.20;39.60
49148;DHT22;41980;45.550;12.070;2023-04-03T11:02:33;17.70;40.40
49148;DHT22;41980;45.550;12.070;2023-04-03T11:14:48;17.70;39.90
49148;DHT22;41980;45.550;12.070;2023-04-03T11:21:03;17.50;40.60
49148;DHT22;41980;45.550;12.070;2023-04-03T11:39:25;16.80;41.10
49148;DHT22;41980;45.550;12.070;2023-04-03T11:51:39;16.50;41.90
49148;DHT22;41980;45.550;12.070;2023-04-03T11:57:46;16.70;42.20
49148;DHT22;41980;45.550;12.070;2023-04-03T12:09:54;16.50;41.70
49148;DHT22;41980;45.550;12.070;2023-04-03T12:15:58;16.40;41.70
49148;DHT22;41980;45.550;12.070;2023-04-03T12:28:06;16.50;40.90
49148;DHT22;41980;45.550;12.070;2023-04-03T12:46:42;16.30;41.40
49148;DHT22;41980;45.550;12.070;2023-04-03T12:52:50;16.40;41.50
49148;DHT22;41980;45.550;12.070;2023-04-03T12:58:55;16.50;41.40
49148;DHT22;41980;45.550;12.070;2023-04-03T13:05:07;16.50;41.40
49148;DHT22;41980;45.550;12.070;2023-04-03T13:11:11;16.40;41.00
49148;DHT22;41980;45.550;12.070;2023-04-03T13:17:15;16.20;41.00
49148;DHT22;41980;45.550;12.070;2023-04-03T13:23:19;16.10;40.10
49148;DHT22;41980;45.550;12.070;2023-04-03T13:29:27;16.20;41.10
49148;DHT22;41980;45.550;12.070;2023-04-03T13:41:38;16.30;41.20
49148;DHT22;41980;45.550;12.070;2023-04-03T13:47:44;16.30;40.70
49148;DHT22;41980;45.550;12.070;2023-04-03T13:59:52;16.10;41.10
49148;DHT22;41980;45.550;12.070;2023-04-03T14:05:54;16.00;40.60
49148;DHT22;41980;45.550;12.070;2023-04-03T14:12:00;16.00;40.40
49148;DHT22;41980;45.550;12.070;2023-04-03T14:18:09;16.00;40.50
49148;DHT22;41980;45.550;12.070;2023-04-03T14:24:11;16.00;40.70
49148;DHT22;41980;45.550;12.070;2023-04-03T14:30:18;16.00;41.00
49148;DHT22;41980;45.550;12.070;2023-04-03T14:36:23;15.90;40.90
49148;DHT22;41980;45.550;12.070;2023-04-03T14:42:30;15.90;40.50
49148;DHT22;41980;45.550;12.070;2023-04-03T14:48:33;15.80;40.50
49148;DHT22;41980;45.550;12.070;2023-04-03T14:54:35;15.70;40.00
49148;DHT22;41980;45.550;12.070;2023-04-03T15:00:37;15.80;40.10
49148;DHT22;41980;45.550;12.070;2023-04-03T15:06:40;15.70;39.20
49148;DHT22;41980;45.550;12.070;2023-04-03T15:12:43;15.60;39.80
49148;DHT22;41980;45.550;12.070;2023-04-03T15:18:46;15.60;39.60
49148;DHT22;41980;45.550;12.070;2023-04-03T15:24:48;15.70;39.10
49148;DHT22;41980;45.550;12.070;2023-04-03T15:30:51;15.60;39.50
49148;DHT22;41980;45.550;12.070;2023-04-03T15:36:53;15.50;39.80
49148;DHT22;41980;45.550;12.070;2023-04-03T15:42:55;15.50;39.90
49148;DHT22;41980;45.550;12.070;2023-04-03T15:48:57;15.40;40.40
49148;DHT22;41980;45.550;12.070;2023-04-03T15:55:00;15.30;40.10
49148;DHT22;41980;45.550;12.070;2023-04-03T16:01:02;15.20;39.80
49148;DHT22;41980;45.550;12.070;2023-04-03T16:07:04;15.10;40.00
49148;DHT22;41980;45.550;12.070;2023-04-03T16:13:06;15.00;40.30
49148;DHT22;41980;45.550;12.070;2023-04-03T16:19:09;14.90;40.30
49148;DHT22;41980;45.550;12.070;2023-04-03T16:25:13;14.80;39.70
49148;DHT22;41980;45.550;12.070;2023-04-03T16:31:15;14.70;40.50
49148;DHT22;41980;45.550;12.070;2023-04-03T16:37:17;14.50;40.70
49148;DHT22;41980;45.550;12.070;2023-04-03T16:43:19;14.50;41.30
49148;DHT22;41980;45.550;12.070;2023-04-03T16:49:21;14.40;41.60
49148;DHT22;41980;45.550;12.070;2023-04-03T16:55:23;14.20;41.60
49148;DHT22;41980;45.550;12.070;2023-04-03T17:01:25;14.00;41.30
49148;DHT22;41980;45.550;12.070;2023-04-03T17:07:27;13.80;42.00
49148;DHT22;41980;45.550;12.070;2023-04-03T17:13:29;13.60;42.30
49148;DHT22;41980;45.550;12.070;2023-04-03T17:19:35;13.50;42.80
49148;DHT22;41980;45.550;12.070;2023-04-03T17:25:38;13.30;42.90
49148;DHT22;41980;45.550;12.070;2023-04-03T17:31:40;13.20;41.90
49148;DHT22;41980;45.550;12.070;2023-04-03T17:37:42;13.10;42.90
49148;DHT22;41980;45.550;12.070;2023-04-03T17:43:44;12.90;43.20
49148;DHT22;41980;45.550;12.070;2023-04-03T17:49:46;12.80;43.50
49148;DHT22;41980;45.550;12.070;2023-04-03T17:55:48;12.80;43.70
49148;DHT22;41980;45.550;12.070;2023-04-03T18:01:50;12.70;44.00
49148;DHT22;41980;45.550;12.070;2023-04-03T18:07:53;12.60;44.30
49148;DHT22;41980;45.550;12.070;2023-04-03T18:13:58;12.50;44.70
49148;DHT22;41980;45.550;12.070;2023-04-03T18:20:02;12.40;45.00
49148;DHT22;41980;45.550;12.070;2023-04-03T18:26:06;12.30;45.30
49148;DHT22;41980;45.550;12.070;2023-04-03T18:32:13;12.20;45.50
49148;DHT22;41980;45.550;12.070;2023-04-03T18:38:16;12.10;45.60
49148;DHT22;41980;45.550;12.070;2023-04-03T18:44:18;12.00;45.70
49148;DHT22;41980;45.550;12.070;2023-04-03T18:50:23;12.00;45.90
49148;DHT22;41980;45.550;12.070;2023-04-03T18:56:25;12.00;46.10
49148;DHT22;41980;45.550;12.070;2023-04-03T19:02:28;11.90;46.20
49148;DHT22;41980;45.550;12.070;2023-04-03T19:08:30;11.90;46.30
49148;DHT22;41980;45.550;12.070;2023-04-03T19:14:33;11.90;46.60
49148;DHT22;41980;45.550;12.070;2023-04-03T19:20:35;11.90;46.50
49148;DHT22;41980;45.550;12.070;2023-04-03T19:26:38;11.90;46.50
49148;DHT22;41980;45.550;12.070;2023-04-03T19:32:40;11.80;46.60
49148;DHT22;41980;45.550;12.070;2023-04-03T19:38:42;11.80;46.70
49148;DHT22;41980;45.550;12.070;2023-04-03T19:44:45;11.70;46.90
49148;DHT22;41980;45.550;12.070;2023-04-03T19:50:48;11.60;47.10
49148;DHT22;41980;45.550;12.070;2023-04-03T19:56:50;11.60;47.20
49148;DHT22;41980;45.550;12.070;2023-04-03T20:02:53;11.50;47.30
49148;DHT22;41980;45.550;12.070;2023-04-03T20:08:55;11.50;47.30
49148;DHT22;41980;45.550;12.070;2023-04-03T20:14:59;11.50;47.30
49148;DHT22;41980;45.550;12.070;2023-04-03T20:21:04;11.30;47.40
49148;DHT22;41980;45.550;12.070;2023-04-03T20:27:06;11.30;47.40
49148;DHT22;41980;45.550;12.070;2023-04-03T20:33:08;11.20;47.60
49148;DHT22;41980;45.550;12.070;2023-04-03T20:39:10;11.10;47.60
49148;DHT22;41980;45.550;12.070;2023-04-03T20:45:11;11.00;47.80
49148;DHT22;41980;45.550;12.070;2023-04-03T20:51:18;11.00;47.90
49148;DHT22;41980;45.550;12.070;2023-04-03T20:57:20;10.90;48.00
49148;DHT22;41980;45.550;12.070;2023-04-03T21:03:23;10.80;47.80
49148;DHT22;41980;45.550;12.070;2023-04-03T21:21:46;10.70;47.40
49148;DHT22;41980;45.550;12.070;2023-04-03T21:27:48;10.60;47.20
49148;DHT22;41980;45.550;12.070;2023-04-03T21:33:50;10.50;47.10
49148;DHT22;41980;45.550;12.070;2023-04-03T21:39:52;10.50;45.60
49148;DHT22;41980;45.550;12.070;2023-04-03T21:45:55;10.40;44.90
49148;DHT22;41980;45.550;12.070;2023-04-03T21:51:58;10.30;45.60
49148;DHT22;41980;45.550;12.070;2023-04-03T21:57:59;10.20;44.70
49148;DHT22;41980;45.550;12.070;2023-04-03T22:04:01;10.20;44.90
49148;DHT22;41980;45.550;12.070;2023-04-03T22:10:04;10.10;45.30
49148;DHT22;41980;45.550;12.070;2023-04-03T22:16:07;10.10;45.60
49148;DHT22;41980;45.550;12.070;2023-04-03T22:22:09;9.90;45.60
49148;DHT22;41980;45.550;12.070;2023-04-03T22:28:11;10.00;45.70
49148;DHT22;41980;45.550;12.070;2023-04-03T22:34:13;10.00;45.40
49148;DHT22;41980;45.550;12.070;2023-04-03T22:40:17;9.90;45.50
49148;DHT22;41980;45.550;12.070;2023-04-03T22:46:19;9.80;45.50
49148;DHT22;41980;45.550;12.070;2023-04-03T22:52:21;9.70;45.20
49148;DHT22;41980;45.550;12.070;2023-04-03T22:58:23;9.60;45.50
49148;DHT22;41980;45.550;12.070;2023-04-03T23:04:27;9.50;45.70
49148;DHT22;41980;45.550;12.070;2023-04-03T23:10:28;9.40;46.00
49148;DHT22;41980;45.550;12.070;2023-04-03T23:16:30;9.30;46.20
49148;DHT22;41980;45.550;12.070;2023-04-03T23:22:33;9.30;46.20
49148;DHT22;41980;45.550;12.070;2023-04-03T23:28:35;9.20;46.30
49148;DHT22;41980;45.550;12.070;2023-04-03T23:34:37;9.00;46.70
49148;DHT22;41980;45.550;12.070;2023-04-03T23:40:40;9.00;46.90
49148;DHT22;41980;45.550;12.070;2023-04-03T23:46:42;8.90;47.10
49148;DHT22;41980;45.550;12.070;2023-04-03T23:52:44;8.80;47.20
49148;DHT22;41980;45.550;12.070;2023-04-03T23:58:46;8.70;47.50
